Nodine, Minnesota
Current Conditions -  °F | °C
As of 8:53 PM on Wednesday 22 Oct 2014 (Local Time) from KLSE Reporting Station
Broken Clouds Broken Clouds  
Wind Chill: 55°   Ceiling: 10000
Heat Index: 55°   Visibility: 10mi
Dew Point: 37°   Wind: 8mph
Humidity: 51%   Direction: 160°SSE
Pressure: 30.16"   Gusts: NA
Location:  43.9163°N, 91.4255°W
Report Text: KLSE 230153Z AUTO 16007KT 10SM FEW075 BKN100 13/03 A3016 RMK AO2 SLP216 T01280028
Loading
Personal Weather Stations






























Interactive Weather Map
Tropical Storm Tracking
New forecast layout! Learn more

10-Day Weather Forecast

Advertisements
Track Severe Weather on mobile